createdAt,value
2022-08-28T00:00:42.669Z,15.30
2022-08-28T00:03:11.749Z,15.04
2022-08-28T00:05:39.599Z,14.84
2022-08-28T00:08:08.330Z,15.24
2022-08-28T00:10:39.506Z,15.71
2022-08-28T00:13:08.000Z,15.72
2022-08-28T00:15:36.844Z,15.56
2022-08-28T00:18:05.004Z,15.39
2022-08-28T00:20:32.793Z,15.24
2022-08-28T00:23:00.787Z,15.12
2022-08-28T00:25:28.947Z,15.55
2022-08-28T00:28:00.488Z,16.03
2022-08-28T00:30:34.409Z,15.95
2022-08-28T00:33:04.925Z,15.64
2022-08-28T00:35:32.045Z,15.38
2022-08-28T00:37:59.712Z,15.13
2022-08-28T00:40:32.995Z,14.95
2022-08-28T00:43:02.024Z,15.35
2022-08-28T00:45:30.190Z,15.84
2022-08-28T00:47:58.035Z,15.85
2022-08-28T00:50:50.069Z,15.60
2022-08-28T00:53:17.231Z,15.27
2022-08-28T00:55:44.134Z,15.01
2022-08-28T00:58:11.451Z,14.83
2022-08-28T01:00:38.974Z,15.21
2022-08-28T01:03:06.171Z,15.59
2022-08-28T01:05:34.409Z,15.55
2022-08-28T01:08:01.584Z,15.34
2022-08-28T01:10:30.440Z,15.08
2022-08-28T01:12:57.308Z,14.80
2022-08-28T01:15:27.824Z,14.56
2022-08-28T01:17:57.200Z,14.88
2022-08-28T01:20:26.414Z,15.30
2022-08-28T01:23:10.666Z,15.27
2022-08-28T01:25:38.018Z,15.03
2022-08-28T01:28:07.577Z,14.80
2022-08-28T01:30:34.698Z,14.56
2022-08-28T01:33:02.130Z,14.33
2022-08-28T01:35:34.418Z,14.61
2022-08-28T01:38:01.445Z,15.02
2022-08-28T01:40:37.093Z,14.89
2022-08-28T01:43:08.482Z,14.53
2022-08-28T01:45:37.334Z,14.32
2022-08-28T01:48:05.815Z,14.12
2022-08-28T01:50:33.605Z,13.92
2022-08-28T01:53:01.547Z,14.32
2022-08-28T01:55:29.133Z,14.79
2022-08-28T01:57:56.976Z,14.81
2022-08-28T02:02:23.530Z,14.46
2022-08-28T02:04:50.903Z,14.15
2022-08-28T02:07:18.191Z,13.94
2022-08-28T02:09:45.295Z,14.26
2022-08-28T02:12:12.326Z,14.68
2022-08-28T02:14:39.408Z,14.72
2022-08-28T02:17:06.422Z,14.54
2022-08-28T02:19:33.466Z,14.28
2022-08-28T02:22:00.524Z,14.00
2022-08-28T02:24:27.665Z,13.78
2022-08-28T02:26:54.637Z,14.16
2022-08-28T02:29:22.194Z,14.69
2022-08-28T02:31:49.143Z,14.77
2022-08-28T02:34:16.188Z,14.62
2022-08-28T02:36:43.237Z,14.40
2022-08-28T02:39:10.686Z,14.14
2022-08-28T02:41:37.713Z,13.93
2022-08-28T02:44:05.175Z,14.25
2022-08-28T02:46:32.426Z,14.71
2022-08-28T02:48:59.776Z,14.74
2022-08-28T02:51:27.669Z,14.56
2022-08-28T02:53:54.716Z,14.26
2022-08-28T02:56:21.758Z,13.94
2022-08-28T02:58:48.885Z,13.61
2022-08-28T03:01:16.066Z,13.89
2022-08-28T03:03:44.537Z,14.32
2022-08-28T03:06:14.944Z,14.32
2022-08-28T03:08:42.448Z,14.11
2022-08-28T03:11:09.588Z,13.85
2022-08-28T03:13:37.016Z,13.58
2022-08-28T03:16:05.285Z,13.35
2022-08-28T03:18:33.322Z,13.71
2022-08-28T03:21:00.637Z,14.15
2022-08-28T03:23:27.876Z,14.14
2022-08-28T03:26:06.281Z,13.92
2022-08-28T03:28:39.412Z,13.64
2022-08-28T03:31:07.722Z,13.33
2022-08-28T03:33:34.802Z,13.10
2022-08-28T03:36:04.659Z,13.46
2022-08-28T03:38:32.003Z,13.95
2022-08-28T03:40:59.027Z,14.00
2022-08-28T03:43:27.741Z,13.88
2022-08-28T03:45:59.736Z,13.71
2022-08-28T03:48:27.823Z,13.48
2022-08-28T03:50:55.340Z,13.29
2022-08-28T03:53:22.949Z,13.71
2022-08-28T03:55:49.911Z,14.20
2022-08-28T03:58:19.090Z,14.24
2022-08-28T04:00:46.234Z,14.10
2022-08-28T04:03:14.036Z,13.89
2022-08-28T04:05:42.195Z,13.69
2022-08-28T04:08:10.212Z,13.58
2022-08-28T04:10:37.934Z,14.06
2022-08-28T04:13:05.061Z,14.62
2022-08-28T04:15:32.361Z,14.68
2022-08-28T04:17:59.361Z,14.55
2022-08-28T04:20:27.636Z,14.40
2022-08-28T04:22:55.194Z,14.30
2022-08-28T04:25:22.753Z,14.34
2022-08-28T04:27:50.922Z,15.01
2022-08-28T04:30:18.975Z,15.84
2022-08-28T04:32:46.044Z,16.25
2022-08-28T04:35:13.146Z,16.38
2022-08-28T04:37:40.445Z,16.46
2022-08-28T04:40:10.041Z,16.53
2022-08-28T04:42:38.072Z,16.48
2022-08-28T04:45:06.509Z,16.62
2022-08-28T04:47:38.153Z,17.38
2022-08-28T04:50:06.656Z,18.23
2022-08-28T04:52:34.019Z,18.56
2022-08-28T04:55:01.068Z,18.65
2022-08-28T04:57:28.057Z,18.59
2022-08-28T04:59:55.055Z,18.47
2022-08-28T05:02:21.976Z,18.35
2022-08-28T05:04:49.129Z,18.29
2022-08-28T05:07:16.093Z,18.32
2022-08-28T05:09:43.045Z,18.37
2022-08-28T05:12:16.209Z,18.47
2022-08-28T05:14:43.578Z,18.56
2022-08-28T05:17:10.513Z,18.66
2022-08-28T05:19:37.591Z,18.83
2022-08-28T05:22:05.115Z,19.61
2022-08-28T05:24:32.172Z,20.42
2022-08-28T05:26:59.119Z,20.67
2022-08-28T05:29:26.188Z,20.85
2022-08-28T05:31:53.408Z,20.86
2022-08-28T05:34:21.281Z,20.81
2022-08-28T05:36:49.078Z,20.70
2022-08-28T05:39:16.015Z,20.59
2022-08-28T05:41:44.159Z,20.53
2022-08-28T05:44:12.647Z,20.38
2022-08-28T05:46:41.655Z,20.40
2022-08-28T05:49:10.215Z,20.45
2022-08-28T05:51:40.410Z,20.48
2022-08-28T05:54:07.487Z,20.59
2022-08-28T05:56:36.754Z,20.70
2022-08-28T05:59:03.938Z,20.71
2022-08-28T06:01:33.015Z,20.77
2022-08-28T06:04:06.443Z,20.87
2022-08-28T06:06:38.128Z,21.00
2022-08-28T06:09:17.044Z,21.10
2022-08-28T06:11:46.278Z,21.23
2022-08-28T06:14:15.727Z,21.98
2022-08-28T06:16:45.761Z,22.74
2022-08-28T06:19:13.496Z,23.02
2022-08-28T06:21:41.698Z,23.08
2022-08-28T06:24:12.509Z,22.96
2022-08-28T06:26:40.372Z,22.86
2022-08-28T06:29:09.701Z,22.69
2022-08-28T06:31:37.200Z,22.57
2022-08-28T06:34:04.586Z,22.52
2022-08-28T06:36:33.764Z,22.57
2022-08-28T06:39:01.752Z,22.65
2022-08-28T06:41:29.117Z,22.80
2022-08-28T06:43:57.386Z,22.87
2022-08-28T06:46:25.287Z,22.92
2022-08-28T06:48:53.122Z,23.02
2022-08-28T06:51:20.268Z,23.13
2022-08-28T06:53:50.287Z,23.21
2022-08-28T06:56:26.111Z,23.27
2022-08-28T06:58:55.835Z,23.37
2022-08-28T07:01:25.737Z,23.46
2022-08-28T07:03:54.093Z,23.57
2022-08-28T07:06:22.031Z,23.58
2022-08-28T07:08:49.570Z,23.66
2022-08-28T07:11:19.990Z,23.69
2022-08-28T07:13:47.149Z,23.83
2022-08-28T07:16:15.686Z,23.92
2022-08-28T07:18:43.316Z,24.00
2022-08-28T07:21:12.433Z,24.04
2022-08-28T07:23:40.479Z,24.17
2022-08-28T07:26:09.655Z,24.29
2022-08-28T07:28:36.729Z,24.37
2022-08-28T07:31:13.643Z,24.50
2022-08-28T07:33:40.869Z,24.59
2022-08-28T07:36:15.649Z,24.78
2022-08-28T07:38:57.352Z,24.89
2022-08-28T07:41:26.966Z,25.01
2022-08-28T07:44:12.753Z,25.10
2022-08-28T07:46:39.993Z,25.29
2022-08-28T07:49:08.483Z,25.43
2022-08-28T07:51:35.797Z,25.52
2022-08-28T07:54:04.252Z,25.71
2022-08-28T07:56:31.667Z,26.03
2022-08-28T07:58:59.489Z,26.24
2022-08-28T08:01:27.752Z,26.36
2022-08-28T08:04:01.341Z,26.24
2022-08-28T08:06:33.842Z,26.70
2022-08-28T08:09:02.435Z,26.82
2022-08-28T08:11:32.421Z,27.07
2022-08-28T08:14:04.705Z,27.28
2022-08-28T08:16:39.088Z,27.50
2022-08-28T08:19:06.845Z,27.67
2022-08-28T08:21:33.818Z,27.89
2022-08-28T08:24:00.734Z,28.03
2022-08-28T08:26:31.164Z,28.33
2022-08-28T08:28:59.133Z,28.48
2022-08-28T08:31:32.528Z,28.56
2022-08-28T08:34:02.229Z,28.17
2022-08-28T08:36:30.802Z,28.33
2022-08-28T08:39:00.064Z,28.64
2022-08-28T08:41:51.777Z,28.01
2022-08-28T08:44:33.781Z,27.87
2022-08-28T08:47:16.768Z,28.30
2022-08-28T08:49:54.039Z,28.78
2022-08-28T08:52:42.812Z,28.80
2022-08-28T08:55:27.475Z,28.32
2022-08-28T08:58:17.780Z,28.46
2022-08-28T09:00:57.728Z,29.23
2022-08-28T09:03:40.406Z,28.80
2022-08-28T09:06:51.421Z,28.82
2022-08-28T09:09:38.525Z,29.04
2022-08-28T09:12:09.473Z,29.58
2022-08-28T09:14:49.627Z,28.92
2022-08-28T09:17:18.918Z,28.39
2022-08-28T09:19:46.173Z,29.12
2022-08-28T09:22:13.428Z,29.71
2022-08-28T09:24:40.986Z,29.50
2022-08-28T09:27:24.648Z,30.17
2022-08-28T09:29:58.897Z,30.56
2022-08-28T09:32:29.687Z,30.96
2022-08-28T09:35:15.692Z,30.94
2022-08-28T09:37:43.838Z,31.33
2022-08-28T09:40:20.569Z,31.76
2022-08-28T09:43:27.217Z,32.11
2022-08-28T09:46:02.004Z,32.26
2022-08-28T09:48:38.901Z,32.30
2022-08-28T09:51:07.278Z,31.97
2022-08-28T09:53:56.865Z,30.89
2022-08-28T09:56:34.773Z,31.67
2022-08-28T09:59:34.474Z,32.27
2022-08-28T10:02:17.519Z,32.75
2022-08-28T10:04:59.899Z,33.04
2022-08-28T10:07:47.442Z,32.31
2022-08-28T10:10:25.961Z,32.22
2022-08-28T10:13:22.175Z,32.88
2022-08-28T10:16:15.475Z,33.27
2022-08-28T10:18:57.131Z,33.17
2022-08-28T10:21:33.495Z,33.89
2022-08-28T10:28:29.245Z,34.52
2022-08-28T10:31:00.679Z,34.45
2022-08-28T10:33:46.096Z,34.51
2022-08-28T10:36:33.999Z,34.62
2022-08-28T10:39:24.301Z,34.57
2022-08-28T10:41:58.246Z,33.81
2022-08-28T10:44:29.932Z,33.38
2022-08-28T10:46:57.836Z,33.86
2022-08-28T10:49:30.221Z,34.16
2022-08-28T10:52:01.454Z,34.56
2022-08-28T10:54:33.515Z,34.81
2022-08-28T10:57:02.919Z,34.81
2022-08-28T10:59:30.279Z,34.92
2022-08-28T11:01:57.352Z,35.09
2022-08-28T11:04:25.711Z,35.29
2022-08-28T11:06:58.821Z,34.95
2022-08-28T11:09:46.193Z,34.56
2022-08-28T11:12:20.053Z,34.11
2022-08-28T11:14:49.645Z,33.95
2022-08-28T11:17:23.064Z,33.57
2022-08-28T11:19:52.471Z,33.37
2022-08-28T11:22:22.922Z,33.09
2022-08-28T11:25:07.780Z,32.91
2022-08-28T11:27:37.377Z,32.87
2022-08-28T11:30:15.338Z,32.97
2022-08-28T11:32:51.614Z,32.62
2022-08-28T11:35:31.058Z,32.48
2022-08-28T11:37:58.088Z,32.15
2022-08-28T11:40:28.547Z,31.89
2022-08-28T11:43:18.101Z,31.80
2022-08-28T11:45:46.820Z,31.72
2022-08-28T11:48:33.687Z,31.62
2022-08-28T11:51:09.127Z,31.09
2022-08-28T11:53:52.053Z,31.08
2022-08-28T11:56:34.560Z,31.02
2022-08-28T11:59:20.243Z,30.93
2022-08-28T12:01:49.665Z,30.78
2022-08-28T12:04:21.470Z,30.61
2022-08-28T12:06:55.135Z,30.57
2022-08-28T12:09:46.411Z,30.51
2022-08-28T12:12:22.710Z,30.36
2022-08-28T12:14:56.092Z,30.44
2022-08-28T12:17:24.505Z,30.39
2022-08-28T12:19:57.553Z,30.09
2022-08-28T12:22:26.958Z,30.15
2022-08-28T12:24:59.260Z,30.31
2022-08-28T12:27:26.388Z,30.27
2022-08-28T12:29:57.759Z,30.18
2022-08-28T12:32:34.017Z,30.13
2022-08-28T12:35:24.515Z,30.11
2022-08-28T12:37:54.812Z,30.15
2022-08-28T12:40:29.090Z,30.32
2022-08-28T12:43:23.231Z,30.25
2022-08-28T12:45:52.695Z,30.20
2022-08-28T12:48:22.938Z,30.39
2022-08-28T12:51:13.097Z,30.41
2022-08-28T12:53:43.200Z,30.15
2022-08-28T12:56:11.437Z,30.04
2022-08-28T12:58:40.017Z,30.09
2022-08-28T13:01:31.382Z,30.16
2022-08-28T13:04:08.775Z,30.26
2022-08-28T13:06:38.747Z,30.23
2022-08-28T13:09:17.744Z,30.32
2022-08-28T13:11:47.972Z,30.37
2022-08-28T13:14:15.670Z,30.45
2022-08-28T13:16:45.147Z,30.38
2022-08-28T13:19:22.157Z,30.16
2022-08-28T13:21:52.266Z,29.88
2022-08-28T13:24:22.507Z,30.03
2022-08-28T13:27:14.321Z,30.27
2022-08-28T13:29:57.383Z,30.40
2022-08-28T13:32:27.748Z,30.38
2022-08-28T13:35:16.894Z,30.41
2022-08-28T13:37:51.123Z,30.47
2022-08-28T13:40:53.453Z,30.59
2022-08-28T13:43:11.443Z,30.29
2022-08-28T13:45:42.684Z,30.09
2022-08-28T13:48:14.838Z,29.88
2022-08-28T13:50:44.753Z,29.81
2022-08-28T13:53:15.200Z,29.76
2022-08-28T13:55:42.395Z,29.80
2022-08-28T13:58:09.817Z,29.79
2022-08-28T14:00:38.340Z,29.87
2022-08-28T14:03:24.107Z,29.92
2022-08-28T14:05:51.142Z,29.75
2022-08-28T14:08:18.197Z,29.73
2022-08-28T14:10:45.424Z,29.69
2022-08-28T14:13:13.000Z,29.61
2022-08-28T14:15:40.545Z,29.73
2022-08-28T14:18:07.688Z,29.78
2022-08-28T14:20:34.761Z,29.72
2022-08-28T14:23:01.987Z,29.75
2022-08-28T14:25:29.055Z,29.76
2022-08-28T14:27:56.285Z,29.51
2022-08-28T14:30:24.098Z,29.48
2022-08-28T14:32:51.201Z,29.52
2022-08-28T14:35:18.454Z,29.52
2022-08-28T14:37:45.724Z,29.37
2022-08-28T14:40:13.179Z,29.35
2022-08-28T14:42:42.188Z,29.37
2022-08-28T14:45:10.382Z,29.33
2022-08-28T14:47:39.633Z,29.25
2022-08-28T14:50:07.921Z,29.22
2022-08-28T14:52:35.376Z,29.26
2022-08-28T14:55:02.514Z,29.27
2022-08-28T14:57:29.574Z,29.30
2022-08-28T14:59:56.713Z,29.31
2022-08-28T15:02:23.889Z,29.32
2022-08-28T15:04:50.936Z,29.32
2022-08-28T15:07:18.109Z,29.37
2022-08-28T15:09:45.109Z,29.37
2022-08-28T15:12:12.267Z,29.32
2022-08-28T15:14:39.529Z,29.28
2022-08-28T15:17:08.606Z,29.24
2022-08-28T15:19:35.697Z,29.20
2022-08-28T15:22:04.656Z,29.17
2022-08-28T15:24:34.416Z,29.12
2022-08-28T15:27:02.020Z,29.05
2022-08-28T15:29:30.211Z,29.02
2022-08-28T15:31:59.314Z,28.97
2022-08-28T15:34:28.302Z,28.92
2022-08-28T15:36:56.232Z,28.86
2022-08-28T15:39:43.711Z,28.82
2022-08-28T15:42:11.667Z,28.82
2022-08-28T15:44:39.134Z,28.79
2022-08-28T15:47:06.644Z,28.76
2022-08-28T15:49:36.207Z,28.70
2022-08-28T15:52:12.784Z,28.63
2022-08-28T15:54:39.899Z,28.60
2022-08-28T15:57:07.037Z,28.53
2022-08-28T15:59:48.283Z,28.44
2022-08-28T16:02:16.611Z,28.34
2022-08-28T16:04:43.959Z,28.21
2022-08-28T16:07:11.456Z,28.07
2022-08-28T16:09:38.459Z,27.93
2022-08-28T16:12:05.918Z,27.80
2022-08-28T16:14:33.833Z,27.70
2022-08-28T16:17:05.662Z,27.60
2022-08-28T16:19:41.709Z,27.45
2022-08-28T16:22:09.977Z,27.33
2022-08-28T16:24:37.235Z,27.16
2022-08-28T16:27:06.205Z,26.98
2022-08-28T16:29:35.560Z,26.81
2022-08-28T16:32:04.910Z,26.66
2022-08-28T16:34:33.137Z,26.47
2022-08-28T16:37:00.460Z,26.28
2022-08-28T16:39:27.604Z,26.11
2022-08-28T16:41:54.592Z,25.93
2022-08-28T16:44:23.000Z,25.77
2022-08-28T16:46:50.625Z,25.60
2022-08-28T16:49:17.945Z,25.42
2022-08-28T16:51:45.094Z,25.24
2022-08-28T16:54:12.184Z,25.06
2022-08-28T16:56:40.421Z,24.88
2022-08-28T16:59:10.474Z,24.71
2022-08-28T17:01:40.874Z,24.53
2022-08-28T17:04:10.065Z,24.34
2022-08-28T17:06:37.316Z,24.14
2022-08-28T17:09:04.567Z,23.94
2022-08-28T17:11:32.035Z,23.77
2022-08-28T17:14:00.472Z,23.60
2022-08-28T17:16:30.272Z,23.43
2022-08-28T17:18:58.393Z,23.27
2022-08-28T17:21:44.437Z,23.12
2022-08-28T17:24:13.227Z,22.97
2022-08-28T17:26:41.021Z,22.85
2022-08-28T17:29:08.284Z,22.73
2022-08-28T17:31:35.578Z,22.62
2022-08-28T17:34:02.710Z,22.51
2022-08-28T17:36:33.218Z,22.38
2022-08-28T17:39:10.719Z,22.24
2022-08-28T17:41:40.180Z,22.13
2022-08-28T17:44:07.708Z,22.05
2022-08-28T17:46:37.720Z,21.95
2022-08-28T17:49:06.694Z,21.89
2022-08-28T17:51:43.407Z,21.82
2022-08-28T17:54:13.167Z,21.75
2022-08-28T17:56:43.194Z,21.67
2022-08-28T17:59:11.571Z,21.61
2022-08-28T18:01:39.337Z,21.52
2022-08-28T18:04:06.711Z,21.39
2022-08-28T18:06:33.986Z,21.22
2022-08-28T18:09:01.319Z,21.01
2022-08-28T18:11:28.749Z,20.79
2022-08-28T18:13:55.955Z,20.66
2022-08-28T18:16:26.513Z,20.56
2022-08-28T18:18:57.190Z,20.51
2022-08-28T18:21:24.822Z,20.50
2022-08-28T18:23:52.192Z,20.51
2022-08-28T18:26:19.123Z,20.49
2022-08-28T18:28:47.135Z,20.45
2022-08-28T18:31:14.737Z,20.41
2022-08-28T18:33:42.010Z,20.33
2022-08-28T18:36:11.157Z,20.25
2022-08-28T18:38:38.454Z,20.21
2022-08-28T18:41:05.790Z,20.21
2022-08-28T18:43:33.165Z,20.19
2022-08-28T18:46:03.266Z,20.17
2022-08-28T18:48:31.462Z,20.14
2022-08-28T18:50:58.616Z,20.11
2022-08-28T18:53:26.623Z,20.05
2022-08-28T18:55:55.386Z,19.99
2022-08-28T18:58:23.362Z,19.95
2022-08-28T19:00:51.509Z,20.47
2022-08-28T19:03:18.656Z,21.01
2022-08-28T19:05:45.737Z,21.11
2022-08-28T19:08:14.492Z,20.99
2022-08-28T19:10:42.161Z,20.84
2022-08-28T19:13:09.341Z,20.71
2022-08-28T19:15:36.843Z,20.57
2022-08-28T19:18:05.449Z,20.42
2022-08-28T19:20:33.027Z,20.28
2022-08-28T19:23:00.465Z,20.13
2022-08-28T19:25:29.380Z,19.98
2022-08-28T19:28:01.663Z,19.81
2022-08-28T19:30:33.383Z,19.66
2022-08-28T19:33:01.762Z,19.55
2022-08-28T19:35:28.927Z,19.46
2022-08-28T19:37:56.087Z,19.37
2022-08-28T19:40:23.646Z,19.33
2022-08-28T19:42:51.618Z,19.85
2022-08-28T19:45:20.380Z,20.45
2022-08-28T19:47:47.317Z,20.57
2022-08-28T19:50:14.986Z,20.45
2022-08-28T19:52:43.373Z,20.28
2022-08-28T19:55:19.543Z,20.08
2022-08-28T19:57:49.747Z,19.90
2022-08-28T20:00:18.343Z,19.74
2022-08-28T20:02:45.570Z,19.59
2022-08-28T20:05:12.663Z,19.45
2022-08-28T20:07:39.785Z,19.32
2022-08-28T20:10:07.681Z,19.18
2022-08-28T20:12:34.698Z,19.07
2022-08-28T20:15:03.758Z,19.48
2022-08-28T20:17:32.724Z,19.96
2022-08-28T20:20:03.111Z,20.01
2022-08-28T20:22:32.171Z,19.87
2022-08-28T20:24:59.864Z,19.67
2022-08-28T20:27:26.947Z,19.48
2022-08-28T20:29:54.062Z,19.27
2022-08-28T20:32:21.136Z,19.06
2022-08-28T20:34:48.170Z,18.89
2022-08-28T20:37:16.948Z,18.78
2022-08-28T20:39:44.139Z,18.70
2022-08-28T20:42:12.064Z,18.65
2022-08-28T20:44:39.139Z,19.15
2022-08-28T20:47:06.684Z,19.68
2022-08-28T20:49:39.358Z,19.74
2022-08-28T20:52:07.173Z,19.62
2022-08-28T20:54:37.795Z,19.45
2022-08-28T20:57:07.721Z,19.27
2022-08-28T20:59:39.933Z,19.10
2022-08-28T21:02:19.565Z,18.94
2022-08-28T21:04:47.382Z,18.79
2022-08-28T21:07:15.849Z,18.66
2022-08-28T21:10:05.506Z,18.53
2022-08-28T21:12:30.495Z,18.50
2022-08-28T21:14:57.854Z,19.10
2022-08-28T21:17:29.663Z,19.66
2022-08-28T21:20:03.100Z,19.76
2022-08-28T21:22:31.834Z,19.60
2022-08-28T21:24:59.994Z,19.35
2022-08-28T21:27:27.059Z,19.12
2022-08-28T21:29:58.314Z,18.93
2022-08-28T21:32:26.357Z,18.77
2022-08-28T21:34:54.812Z,18.65
2022-08-28T21:37:22.389Z,18.55
2022-08-28T21:39:49.727Z,18.47
2022-08-28T21:42:16.692Z,18.42
2022-08-28T21:44:51.209Z,18.89
2022-08-28T21:47:23.305Z,19.46
2022-08-28T21:49:54.811Z,19.54
2022-08-28T21:52:23.842Z,19.41
2022-08-28T21:54:50.853Z,19.23
2022-08-28T21:57:17.910Z,19.03
2022-08-28T21:59:44.871Z,18.84
2022-08-28T22:02:12.079Z,18.64
2022-08-28T22:04:39.350Z,18.46
2022-08-28T22:07:06.935Z,18.31
2022-08-28T22:09:34.062Z,18.18
2022-08-28T22:12:01.555Z,18.10
2022-08-28T22:14:28.692Z,18.56
2022-08-28T22:16:56.209Z,19.13
2022-08-28T22:19:23.196Z,19.25
2022-08-28T22:22:08.832Z,19.13
2022-08-28T22:24:36.926Z,18.93
2022-08-28T22:27:04.588Z,18.74
2022-08-28T22:29:36.659Z,18.55
2022-08-28T22:32:04.812Z,18.42
2022-08-28T22:34:32.397Z,18.30
2022-08-28T22:36:59.565Z,18.14
2022-08-28T22:39:26.449Z,18.02
2022-08-28T22:41:53.396Z,18.42
2022-08-28T22:44:20.474Z,18.96
2022-08-28T22:46:47.356Z,19.01
2022-08-28T22:49:14.316Z,18.84
2022-08-28T22:51:41.410Z,18.65
2022-08-28T22:54:08.460Z,18.44
2022-08-28T22:56:36.632Z,18.11
2022-08-28T22:59:03.784Z,17.74
2022-08-28T23:01:30.831Z,17.41
2022-08-28T23:03:58.548Z,17.69
2022-08-28T23:06:25.641Z,18.08
2022-08-28T23:08:52.693Z,18.04
2022-08-28T23:11:19.762Z,17.86
2022-08-28T23:13:46.899Z,17.65
2022-08-28T23:16:15.412Z,17.40
2022-08-28T23:19:06.525Z,17.13
2022-08-28T23:21:29.968Z,16.90
2022-08-28T23:23:57.099Z,17.41
2022-08-28T23:26:24.655Z,17.91
2022-08-28T23:28:52.311Z,17.89
2022-08-28T23:31:19.521Z,17.71
2022-08-28T23:33:46.818Z,17.49
2022-08-28T23:36:14.991Z,17.27
2022-08-28T23:38:44.558Z,17.05
2022-08-28T23:41:12.363Z,16.79
2022-08-28T23:43:40.537Z,16.60
2022-08-28T23:46:09.585Z,17.01
2022-08-28T23:48:40.611Z,17.52
2022-08-28T23:51:13.992Z,17.51
2022-08-28T23:53:41.367Z,17.33
2022-08-28T23:56:08.473Z,17.10
2022-08-28T23:58:35.436Z,16.85
